Time;durP1;ratioP1;P1;durP2;ratioP2;P2;SDS_P1;SDS_P2;PMS_P1;PMS_P2;Temp;Humidity;BMP_temperature;BMP_pressure;BME280_temperature;BME280_humidity;BME280_pressure;Samples;Min_cycle;Max_cycle;Signal;HPM_P1;HPM_P2
2021/04/15 00:01:39;;;;;;;12.77;8.20;;;;;;;;;;4326647;33;20342;-56
2021/04/15 00:04:06;;;;;;;7.20;6.17;;;;;;;;;;4329830;33;20290;-56
2021/04/15 00:06:32;;;;;;;8.03;5.27;;;;;;;;;;4330331;33;20219;-56
2021/04/15 00:09:00;;;;;;;5.07;4.17;;;;;;;;;;4328980;33;20689;-56
2021/04/15 00:11:30;;;;;;;7.27;5.17;;;;;;;;;;4330534;33;20215;-56
2021/04/15 00:13:57;;;;;;;14.97;8.90;;;;;;;;;;4330010;33;20648;-55
2021/04/15 00:16:28;;;;;;;19.07;10.50;;;;;;;;;;4330054;33;20302;-55
2021/04/15 00:18:55;;;;;;;13.70;9.03;;;;;;;;;;4329573;33;20269;-55
2021/04/15 00:21:21;;;;;;;18.13;11.47;;;;;;;;;;4329846;33;20235;-56
2021/04/15 00:23:46;;;;;;;27.50;15.83;;;;;;;;;;4329745;33;20241;-56
2021/04/15 00:26:14;;;;;;;43.70;21.27;;;;;;;;;;4330046;33;20291;-56
2021/04/15 00:28:40;;;;;;;51.50;24.10;;;;;;;;;;4328359;33;20586;-55
2021/04/15 00:31:07;;;;;;;49.87;28.30;;;;;;;;;;4325760;33;20246;-55
2021/04/15 00:33:33;;;;;;;56.47;29.57;;;;;;;;;;4329116;33;20413;-56
2021/04/15 00:35:59;;;;;;;40.80;24.90;;;;;;;;;;4329896;33;20770;-56
2021/04/15 00:38:27;;;;;;;36.77;21.47;;;;;;;;;;4329342;33;20259;-55
2021/04/15 00:40:54;;;;;;;38.03;29.10;;;;;;;;;;4330002;33;20563;-54
2021/04/15 00:43:25;;;;;;;40.77;26.47;;;;;;;;;;4329449;33;20713;-54
2021/04/15 00:45:52;;;;;;;22.73;15.57;;;;;;;;;;4329106;33;20262;-55
2021/04/15 00:48:34;;;;;;;22.13;13.90;;;;;;;;;;4329752;33;20220;-55
2021/04/15 00:51:14;;;;;;;16.07;9.70;;;;;;;;;;4328922;33;20553;-56
2021/04/15 00:53:48;;;;;;;13.17;8.03;;;;;;;;;;4328763;33;20211;-56
2021/04/15 00:56:14;;;;;;;15.33;9.00;;;;;;;;;;4327482;33;20288;-55
2021/04/15 00:58:41;;;;;;;15.07;8.33;;;;;;;;;;4328535;33;20256;-56
2021/04/15 01:01:07;;;;;;;15.17;9.03;;;;;;;;;;4322870;33;20718;-56
2021/04/15 01:03:34;;;;;;;14.97;8.43;;;;;;;;;;4329052;33;20761;-56
2021/04/15 01:05:59;;;;;;;11.27;7.37;;;;;;;;;;4329398;33;20231;-56
2021/04/15 01:08:26;;;;;;;8.60;5.87;;;;;;;;;;4326835;33;20258;-57
2021/04/15 01:10:59;;;;;;;8.20;5.90;;;;;;;;;;4329404;33;20286;-56
2021/04/15 01:13:41;;;;;;;8.37;6.20;;;;;;;;;;4326537;33;20299;-56
2021/04/15 01:16:19;;;;;;;8.60;5.30;;;;;;;;;;4315112;33;20707;-56
2021/04/15 01:18:56;;;;;;;7.63;5.63;;;;;;;;;;4324626;33;20292;-56
2021/04/15 01:21:45;;;;;;;10.33;7.50;;;;;;;;;;4328747;33;20257;-56
2021/04/15 01:24:18;;;;;;;21.53;12.93;;;;;;;;;;4329155;33;20228;-55
2021/04/15 01:26:53;;;;;;;22.60;13.73;;;;;;;;;;4329049;33;20341;-56
2021/04/15 01:29:36;;;;;;;21.83;13.67;;;;;;;;;;4311225;33;20282;-56
2021/04/15 01:32:10;;;;;;;27.47;15.00;;;;;;;;;;4311009;33;20269;-55
2021/04/15 01:35:01;;;;;;;25.30;14.13;;;;;;;;;;4326109;33;20209;-56
2021/04/15 01:37:49;;;;;;;20.10;12.27;;;;;;;;;;4321659;33;20233;-56
2021/04/15 01:40:20;;;;;;;21.03;11.67;;;;;;;;;;4328941;33;20729;-56
2021/04/15 01:42:55;;;;;;;18.63;11.33;;;;;;;;;;4328675;33;20211;-56
2021/04/15 01:45:21;;;;;;;15.43;10.57;;;;;;;;;;4328919;33;20272;-57
2021/04/15 01:47:56;;;;;;;17.07;10.17;;;;;;;;;;4328756;33;20254;-55
2021/04/15 01:50:26;;;;;;;19.60;12.30;;;;;;;;;;4317409;33;20227;-56
2021/04/15 01:52:56;;;;;;;26.33;15.37;;;;;;;;;;4314875;33;20235;-55
2021/04/15 01:55:28;;;;;;;17.83;12.20;;;;;;;;;;4307518;33;20361;-56
2021/04/15 01:58:19;;;;;;;22.80;11.23;;;;;;;;;;4328424;33;20274;-57
2021/04/15 02:00:50;;;;;;;15.17;9.90;;;;;;;;;;4322544;33;20235;-58
2021/04/15 02:03:23;;;;;;;14.60;10.37;;;;;;;;;;4327991;33;20290;-57
2021/04/15 02:05:56;;;;;;;20.07;13.10;;;;;;;;;;4328618;33;20628;-58
2021/04/15 02:08:25;;;;;;;23.10;13.63;;;;;;;;;;4326389;33;20219;-57
2021/04/15 02:10:55;;;;;;;21.67;14.47;;;;;;;;;;4328713;33;20293;-57
2021/04/15 02:13:24;;;;;;;24.00;15.33;;;;;;;;;;4327954;33;20211;-56
2021/04/15 02:15:55;;;;;;;25.60;16.87;;;;;;;;;;4328059;33;20659;-55
2021/04/15 02:18:27;;;;;;;50.20;28.43;;;;;;;;;;4328265;33;20625;-56
2021/04/15 02:20:57;;;;;;;47.53;27.77;;;;;;;;;;4328606;33;20732;-57
2021/04/15 02:23:32;;;;;;;56.83;33.70;;;;;;;;;;4327485;33;20342;-57
2021/04/15 02:26:10;;;;;;;51.87;27.70;;;;;;;;;;4328905;33;20675;-57
2021/04/15 02:28:58;;;;;;;48.80;24.57;;;;;;;;;;4310587;33;20880;-57
2021/04/15 02:31:30;;;;;;;39.43;20.87;;;;;;;;;;4324293;33;20645;-57
2021/04/15 02:34:40;;;;;;;23.13;14.73;;;;;;;;;;4327101;33;20277;-58
2021/04/15 02:37:09;;;;;;;19.80;10.23;;;;;;;;;;4323145;33;20676;-58
2021/04/15 02:39:41;;;;;;;16.67;10.63;;;;;;;;;;4325083;33;20241;-58
2021/04/15 02:42:10;;;;;;;20.30;11.40;;;;;;;;;;4328196;33;20298;-57
2021/04/15 02:44:48;;;;;;;15.20;9.43;;;;;;;;;;4327385;33;20222;-57
2021/04/15 02:47:38;;;;;;;18.73;11.90;;;;;;;;;;4328371;33;20311;-57
2021/04/15 02:50:10;;;;;;;23.40;11.00;;;;;;;;;;4328191;33;20285;-58
2021/04/15 02:52:41;;;;;;;14.80;10.17;;;;;;;;;;4328092;33;20620;-57
2021/04/15 02:55:24;;;;;;;17.37;9.80;;;;;;;;;;4327560;33;20219;-58
2021/04/15 02:58:04;;;;;;;16.37;10.20;;;;;;;;;;4327688;33;20249;-58
2021/04/15 03:00:37;;;;;;;16.57;10.47;;;;;;;;;;4328141;33;20257;-58
2021/04/15 03:03:32;;;;;;;16.67;10.10;;;;;;;;;;4314365;33;20286;-58
2021/04/15 03:06:04;;;;;;;18.67;10.47;;;;;;;;;;4326574;33;20330;-58
2021/04/15 03:08:31;;;;;;;23.70;10.90;;;;;;;;;;4327318;33;20378;-55
2021/04/15 03:11:01;;;;;;;17.60;10.27;;;;;;;;;;4328338;33;20255;-54
2021/04/15 03:13:42;;;;;;;18.20;10.50;;;;;;;;;;4321947;33;20241;-55
2021/04/15 03:16:08;;;;;;;21.00;12.23;;;;;;;;;;4327092;33;20226;-54
2021/04/15 03:18:46;;;;;;;22.23;15.13;;;;;;;;;;4322584;33;20231;-54
2021/04/15 03:21:17;;;;;;;23.60;15.33;;;;;;;;;;4322666;33;20250;-53
2021/04/15 03:23:53;;;;;;;23.43;15.57;;;;;;;;;;4329895;33;20300;-53
2021/04/15 03:26:41;;;;;;;18.33;11.13;;;;;;;;;;4330520;33;20289;-54
2021/04/15 03:29:18;;;;;;;22.97;13.90;;;;;;;;;;4330515;33;20285;-54
2021/04/15 03:31:50;;;;;;;19.50;10.67;;;;;;;;;;4330357;33;20223;-54
2021/04/15 03:34:37;;;;;;;19.40;13.87;;;;;;;;;;4330545;33;20211;-55
2021/04/15 03:37:04;;;;;;;23.50;14.20;;;;;;;;;;4325666;33;20304;-54
2021/04/15 03:39:35;;;;;;;21.60;13.10;;;;;;;;;;4327055;33;20210;-54
2021/04/15 03:42:39;;;;;;;16.63;10.37;;;;;;;;;;4329888;33;20215;-54
2021/04/15 03:45:15;;;;;;;15.40;10.20;;;;;;;;;;4330066;33;20310;-54
2021/04/15 03:47:46;;;;;;;17.80;10.90;;;;;;;;;;4330022;33;20241;-56
2021/04/15 03:50:18;;;;;;;25.07;12.13;;;;;;;;;;4329629;33;20245;-56
2021/04/15 03:52:59;;;;;;;21.63;13.30;;;;;;;;;;4330043;33;20215;-56
2021/04/15 03:55:30;;;;;;;19.97;12.80;;;;;;;;;;4330602;33;20211;-56
2021/04/15 03:58:09;;;;;;;26.13;12.87;;;;;;;;;;4329433;33;20368;-55
2021/04/15 04:00:41;;;;;;;27.70;14.73;;;;;;;;;;4313948;33;20594;-57
2021/04/15 04:03:10;;;;;;;28.43;14.17;;;;;;;;;;4329904;33;20541;-58
2021/04/15 04:06:00;;;;;;;26.77;14.87;;;;;;;;;;4327000;33;20306;-58
2021/04/15 04:08:50;;;;;;;26.37;15.80;;;;;;;;;;4328980;33;20631;-58
2021/04/15 04:11:19;;;;;;;30.00;19.13;;;;;;;;;;4324892;33;20249;-58
2021/04/15 04:13:49;;;;;;;32.17;21.33;;;;;;;;;;4322084;33;20292;-55
2021/04/15 04:16:20;;;;;;;36.30;20.67;;;;;;;;;;4307856;33;20270;-54
2021/04/15 04:18:51;;;;;;;28.93;19.07;;;;;;;;;;4323513;33;20265;-58
2021/04/15 04:21:40;;;;;;;29.77;14.97;;;;;;;;;;4328867;33;20267;-58
2021/04/15 04:24:13;;;;;;;22.40;13.53;;;;;;;;;;4312098;33;20218;-58
2021/04/15 04:26:49;;;;;;;16.63;11.70;;;;;;;;;;4329271;33;20817;-59
2021/04/15 04:29:49;;;;;;;17.23;10.33;;;;;;;;;;4329339;33;20237;-59
2021/04/15 04:32:18;;;;;;;14.33;9.63;;;;;;;;;;4297240;33;20294;-59
2021/04/15 04:34:50;;;;;;;14.07;8.50;;;;;;;;;;4328881;33;20223;-59
2021/04/15 04:37:16;;;;;;;15.43;8.90;;;;;;;;;;4316100;33;20269;-59
2021/04/15 04:39:42;;;;;;;11.03;7.63;;;;;;;;;;4328933;33;20660;-58
2021/04/15 04:42:19;;;;;;;12.93;8.70;;;;;;;;;;4328665;33;20203;-58
2021/04/15 04:44:49;;;;;;;16.20;12.90;;;;;;;;;;4328028;33;20609;-58
2021/04/15 04:47:20;;;;;;;15.17;9.07;;;;;;;;;;4314754;33;20242;-58
2021/04/15 04:49:55;;;;;;;18.43;9.17;;;;;;;;;;4326713;33;20207;-58
2021/04/15 04:52:27;;;;;;;16.83;11.03;;;;;;;;;;4329338;33;20240;-58
2021/04/15 04:54:53;;;;;;;26.27;12.20;;;;;;;;;;4329089;33;20268;-58
2021/04/15 04:57:41;;;;;;;18.17;12.90;;;;;;;;;;4328935;33;20364;-58
2021/04/15 05:00:11;;;;;;;20.13;12.30;;;;;;;;;;4328067;33;20766;-58
2021/04/15 05:02:37;;;;;;;19.20;12.10;;;;;;;;;;4327346;33;20297;-58
2021/04/15 05:05:09;;;;;;;21.83;12.97;;;;;;;;;;4328336;33;20231;-57
2021/04/15 05:07:37;;;;;;;18.33;12.27;;;;;;;;;;4328316;33;20215;-55
2021/04/15 05:10:04;;;;;;;30.20;17.20;;;;;;;;;;4328186;33;20312;-56
2021/04/15 05:12:34;;;;;;;31.23;13.03;;;;;;;;;;4329120;33;20316;-56
2021/04/15 05:15:00;;;;;;;27.73;12.83;;;;;;;;;;4310927;33;20231;-57
2021/04/15 05:17:32;;;;;;;28.30;15.77;;;;;;;;;;4328867;33;20324;-58
2021/04/15 05:20:07;;;;;;;30.77;18.63;;;;;;;;;;4328290;33;20609;-57
2021/04/15 05:22:45;;;;;;;46.13;28.63;;;;;;;;;;4329018;33;20316;-57
2021/04/15 05:25:14;;;;;;;33.90;20.63;;;;;;;;;;4328371;33;20211;-55
2021/04/15 05:27:40;;;;;;;59.97;29.60;;;;;;;;;;4327954;33;20297;-56
2021/04/15 05:30:15;;;;;;;73.97;40.60;;;;;;;;;;4327963;33;20223;-56
2021/04/15 05:32:43;;;;;;;91.60;45.80;;;;;;;;;;4328329;33;20332;-56
2021/04/15 05:35:11;;;;;;;76.63;44.87;;;;;;;;;;4328255;33;20235;-56
2021/04/15 05:37:37;;;;;;;76.80;43.27;;;;;;;;;;4328311;33;20250;-55
2021/04/15 05:40:03;;;;;;;68.40;38.93;;;;;;;;;;4327702;33;20302;-58
2021/04/15 05:42:51;;;;;;;62.73;39.90;;;;;;;;;;4328144;33;20289;-56
2021/04/15 05:45:25;;;;;;;61.43;34.90;;;;;;;;;;4327864;33;20545;-56
2021/04/15 05:48:06;;;;;;;50.33;31.60;;;;;;;;;;4326590;33;20237;-57
2021/04/15 05:50:40;;;;;;;72.57;39.27;;;;;;;;;;4326463;33;20256;-56
2021/04/15 05:53:14;;;;;;;64.63;37.10;;;;;;;;;;4325876;33;20684;-56
2021/04/15 05:55:48;;;;;;;78.10;53.37;;;;;;;;;;4323625;33;20218;-56
2021/04/15 05:58:21;;;;;;;52.97;31.30;;;;;;;;;;4325832;33;20247;-56
2021/04/15 06:00:52;;;;;;;51.23;29.20;;;;;;;;;;4326305;33;20226;-57
2021/04/15 06:03:35;;;;;;;53.37;30.43;;;;;;;;;;4327229;33;20215;-56
2021/04/15 06:06:15;;;;;;;58.23;37.10;;;;;;;;;;4327217;33;20227;-55
2021/04/15 06:08:44;;;;;;;76.73;52.37;;;;;;;;;;4326370;33;20285;-57
2021/04/15 06:11:37;;;;;;;93.50;63.40;;;;;;;;;;4326829;33;20261;-58
2021/04/15 06:14:13;;;;;;;91.53;59.87;;;;;;;;;;4321869;33;20290;-56
2021/04/15 06:16:44;;;;;;;83.63;52.10;;;;;;;;;;4327153;33;20298;-54
2021/04/15 06:19:16;;;;;;;78.13;51.23;;;;;;;;;;4326912;33;20517;-56
2021/04/15 06:21:47;;;;;;;72.77;47.93;;;;;;;;;;4326395;33;20308;-56
2021/04/15 06:24:22;;;;;;;65.07;41.10;;;;;;;;;;4327088;33;20699;-57
2021/04/15 06:26:51;;;;;;;66.00;37.10;;;;;;;;;;4327223;33;20248;-57
2021/04/15 06:29:32;;;;;;;51.00;34.77;;;;;;;;;;4312728;33;20441;-58
2021/04/15 06:32:03;;;;;;;44.70;30.37;;;;;;;;;;4326044;33;20234;-57
2021/04/15 06:34:29;;;;;;;47.80;31.17;;;;;;;;;;4323061;33;20219;-57
2021/04/15 06:37:16;;;;;;;52.17;29.60;;;;;;;;;;4324119;33;20283;-57
2021/04/15 06:40:02;;;;;;;50.60;30.87;;;;;;;;;;4325317;33;20596;-56
2021/04/15 06:42:56;;;;;;;46.23;30.97;;;;;;;;;;4327842;33;20711;-57
2021/04/15 06:45:29;;;;;;;45.43;30.03;;;;;;;;;;4318068;33;20258;-57
2021/04/15 06:48:13;;;;;;;49.57;31.90;;;;;;;;;;4326884;33;20236;-57
2021/04/15 06:51:04;;;;;;;48.33;30.93;;;;;;;;;;4324712;33;20372;-56
2021/04/15 06:54:06;;;;;;;60.93;31.23;;;;;;;;;;4326887;33;20246;-58
2021/04/15 06:56:55;;;;;;;50.83;33.37;;;;;;;;;;4327132;33;20822;-56
2021/04/15 06:59:58;;;;;;;46.07;30.87;;;;;;;;;;4316348;33;20255;-56
2021/04/15 07:02:43;;;;;;;47.13;33.10;;;;;;;;;;4326524;33;20368;-56
2021/04/15 07:05:51;;;;;;;51.27;32.00;;;;;;;;;;4327711;33;20663;-56
2021/04/15 07:08:37;;;;;;;47.67;31.50;;;;;;;;;;4297654;33;20892;-55
2021/04/15 07:11:39;;;;;;;61.73;34.13;;;;;;;;;;4325551;33;20362;-57
2021/04/15 07:14:28;;;;;;;62.43;37.70;;;;;;;;;;4326222;33;20235;-57
2021/04/15 07:17:12;;;;;;;57.63;33.47;;;;;;;;;;4305416;33;20290;-57
2021/04/15 07:20:25;;;;;;;71.43;38.67;;;;;;;;;;4323650;33;20273;-56
2021/04/15 07:23:06;;;;;;;47.73;32.87;;;;;;;;;;4322599;33;20258;-56
2021/04/15 07:26:02;;;;;;;51.33;27.87;;;;;;;;;;4312390;33;20227;-56
2021/04/15 07:28:43;;;;;;;57.27;37.50;;;;;;;;;;4325748;33;20266;-57
2021/04/15 07:31:39;;;;;;;147.40;78.47;;;;;;;;;;4325455;33;20282;-57
2021/04/15 07:34:23;;;;;;;80.73;50.97;;;;;;;;;;4326319;33;20310;-57
2021/04/15 07:37:14;;;;;;;41.47;27.73;;;;;;;;;;4327370;33;20820;-56
2021/04/15 07:40:03;;;;;;;41.87;27.50;;;;;;;;;;4326561;33;20249;-57
2021/04/15 07:42:48;;;;;;;46.60;29.80;;;;;;;;;;4324769;33;20247;-57
2021/04/15 07:45:25;;;;;;;60.23;36.40;;;;;;;;;;4325206;33;20340;-58
2021/04/15 07:48:32;;;;;;;59.63;35.60;;;;;;;;;;4325110;33;20556;-57
2021/04/15 07:51:16;;;;;;;87.57;55.77;;;;;;;;;;4325551;33;20302;-56
2021/04/15 07:54:12;;;;;;;73.73;39.27;;;;;;;;;;4326209;33;20218;-57
2021/04/15 07:57:13;;;;;;;48.47;35.27;;;;;;;;;;4317088;33;20223;-57
2021/04/15 08:00:27;;;;;;;52.70;36.63;;;;;;;;;;4276394;33;20728;-57
2021/04/15 08:03:02;;;;;;;62.47;36.30;;;;;;;;;;4324197;33;20332;-57
2021/04/15 08:06:02;;;;;;;57.37;32.03;;;;;;;;;;4326861;33;20605;-57
2021/04/15 08:08:58;;;;;;;135.83;78.90;;;;;;;;;;4324589;33;20227;-56
2021/04/15 08:11:33;;;;;;;173.40;97.90;;;;;;;;;;4328999;33;20254;-56
2021/04/15 08:14:38;;;;;;;57.23;34.43;;;;;;;;;;4328921;33;20549;-57
2021/04/15 08:17:16;;;;;;;51.43;30.17;;;;;;;;;;4329474;33;20211;-57
2021/04/15 08:20:19;;;;;;;106.87;60.73;;;;;;;;;;4326547;33;20243;-57
2021/04/15 08:23:12;;;;;;;40.60;23.27;;;;;;;;;;4328696;33;20817;-57
2021/04/15 08:25:46;;;;;;;29.83;18.53;;;;;;;;;;4329137;33;20843;-57
2021/04/15 08:28:33;;;;;;;33.20;18.93;;;;;;;;;;4329148;33;20326;-57
2021/04/15 08:31:11;;;;;;;24.53;15.23;;;;;;;;;;4328417;33;20809;-57
2021/04/15 08:33:55;;;;;;;49.47;30.57;;;;;;;;;;4325929;33;20315;-57
2021/04/15 08:36:41;;;;;;;18.50;14.03;;;;;;;;;;4328809;33;20357;-56
2021/04/15 08:39:33;;;;;;;55.87;35.53;;;;;;;;;;4328799;33;20242;-57
2021/04/15 08:42:04;;;;;;;50.50;32.03;;;;;;;;;;4326077;33;20661;-57
2021/04/15 08:44:54;;;;;;;64.50;41.37;;;;;;;;;;4328571;33;20652;-58
2021/04/15 08:47:47;;;;;;;24.10;17.73;;;;;;;;;;4328244;33;20234;-58
2021/04/15 08:50:30;;;;;;;31.53;22.73;;;;;;;;;;4328856;33;20223;-57
2021/04/15 08:53:14;;;;;;;26.87;16.57;;;;;;;;;;4328639;33;20215;-58
2021/04/15 08:55:43;;;;;;;48.83;31.20;;;;;;;;;;4321492;33;20288;-58
2021/04/15 08:58:46;;;;;;;19.97;14.00;;;;;;;;;;4328453;33;20538;-58
2021/04/15 09:01:15;;;;;;;14.20;8.33;;;;;;;;;;4325296;33;20230;-58
2021/04/15 09:04:03;;;;;;;51.23;32.00;;;;;;;;;;4327974;33;20702;-58
2021/04/15 09:06:47;;;;;;;12.47;8.87;;;;;;;;;;4327126;33;20287;-58
2021/04/15 09:09:20;;;;;;;10.17;8.70;;;;;;;;;;4327815;33;20275;-57
2021/04/15 09:12:19;;;;;;;10.30;7.83;;;;;;;;;;4320442;33;20242;-56
2021/04/15 09:15:00;;;;;;;14.40;9.67;;;;;;;;;;4325317;33;20224;-57
2021/04/15 09:17:36;;;;;;;11.43;8.60;;;;;;;;;;4326753;33;20293;-58
2021/04/15 09:20:10;;;;;;;8.70;7.43;;;;;;;;;;4327605;33;20237;-56
2021/04/15 09:23:21;;;;;;;8.27;7.43;;;;;;;;;;4327860;33;20703;-57
2021/04/15 09:25:58;;;;;;;8.80;6.43;;;;;;;;;;4326238;33;20321;-57
2021/04/15 09:28:42;;;;;;;8.43;6.53;;;;;;;;;;4314541;33;20592;-57
2021/04/15 09:31:19;;;;;;;8.67;6.10;;;;;;;;;;4328885;33;20207;-57
2021/04/15 09:34:21;;;;;;;9.27;7.47;;;;;;;;;;4323160;33;20313;-55
2021/04/15 09:37:08;;;;;;;8.83;6.50;;;;;;;;;;4331820;33;20561;-56
2021/04/15 09:40:01;;;;;;;8.23;7.17;;;;;;;;;;4325512;33;20298;-56
2021/04/15 09:42:45;;;;;;;11.87;9.53;;;;;;;;;;4325081;33;20226;-57
2021/04/15 09:45:26;;;;;;;8.57;6.30;;;;;;;;;;4326370;33;20286;-57
2021/04/15 09:48:28;;;;;;;9.77;6.57;;;;;;;;;;4327083;33;20298;-57
2021/04/15 09:50:58;;;;;;;25.70;14.70;;;;;;;;;;4328873;33;20216;-57
2021/04/15 09:53:48;;;;;;;9.93;7.23;;;;;;;;;;4313043;33;20305;-57
2021/04/15 09:56:19;;;;;;;10.87;8.13;;;;;;;;;;4326752;33;20351;-57
2021/04/15 09:58:55;;;;;;;8.57;7.27;;;;;;;;;;4321918;33;20644;-58
2021/04/15 10:01:27;;;;;;;13.83;8.33;;;;;;;;;;4328488;33;20358;-57
2021/04/15 10:03:58;;;;;;;12.10;8.93;;;;;;;;;;4325279;33;20745;-57
2021/04/15 10:06:47;;;;;;;10.97;7.90;;;;;;;;;;4327720;33;20392;-56
2021/04/15 10:09:27;;;;;;;7.53;6.40;;;;;;;;;;4326805;33;20289;-56
2021/04/15 10:12:14;;;;;;;8.23;6.13;;;;;;;;;;4327979;33;20234;-57
2021/04/15 10:14:49;;;;;;;8.00;7.03;;;;;;;;;;4310296;33;20312;-57
2021/04/15 10:17:48;;;;;;;8.43;6.20;;;;;;;;;;4327193;33;20258;-57
2021/04/15 10:20:47;;;;;;;10.93;8.17;;;;;;;;;;4313760;33;20348;-57
2021/04/15 10:23:38;;;;;;;8.63;6.67;;;;;;;;;;4327544;33;20289;-57
2021/04/15 10:26:26;;;;;;;10.60;6.83;;;;;;;;;;4322516;33;20277;-57
2021/04/15 10:29:26;;;;;;;7.60;5.70;;;;;;;;;;4317105;33;20276;-57
2021/04/15 10:31:54;;;;;;;12.27;7.63;;;;;;;;;;4315116;33;20243;-56
2021/04/15 10:34:35;;;;;;;9.40;6.97;;;;;;;;;;4314294;33;20265;-56
2021/04/15 10:37:28;;;;;;;10.87;7.73;;;;;;;;;;4326183;33;20297;-58
2021/04/15 10:40:32;;;;;;;26.03;14.97;;;;;;;;;;4325756;33;20415;-57
2021/04/15 10:43:36;;;;;;;65.97;29.60;;;;;;;;;;4320438;33;20242;-58
2021/04/15 10:46:17;;;;;;;8.87;7.30;;;;;;;;;;4313829;33;20231;-57
2021/04/15 10:48:48;;;;;;;10.80;5.83;;;;;;;;;;4326471;33;20202;-58
2021/04/15 10:51:34;;;;;;;8.33;6.33;;;;;;;;;;4328362;33;20253;-57
2021/04/15 10:54:05;;;;;;;14.57;11.00;;;;;;;;;;4318948;33;20278;-57
2021/04/15 10:56:34;;;;;;;16.93;12.97;;;;;;;;;;4313422;33;20224;-59
2021/04/15 10:59:02;;;;;;;9.47;7.30;;;;;;;;;;4325988;33;20234;-58
2021/04/15 11:01:31;;;;;;;192.43;97.87;;;;;;;;;;4328162;33;20230;-59
2021/04/15 11:04:00;;;;;;;10.53;8.70;;;;;;;;;;4326598;33;20734;-58
2021/04/15 11:06:32;;;;;;;17.13;11.90;;;;;;;;;;4327373;33;20226;-58
2021/04/15 11:09:16;;;;;;;111.33;69.47;;;;;;;;;;4322462;33;20352;-59
2021/04/15 11:11:59;;;;;;;44.83;32.50;;;;;;;;;;4328071;33;20293;-58
2021/04/15 11:14:30;;;;;;;15.33;11.27;;;;;;;;;;4312453;33;20254;-58
2021/04/15 11:16:57;;;;;;;20.17;15.93;;;;;;;;;;4326684;33;20277;-57
2021/04/15 11:19:25;;;;;;;9.77;7.93;;;;;;;;;;4326995;33;20237;-58
2021/04/15 11:21:53;;;;;;;10.03;8.37;;;;;;;;;;4322352;33;20270;-58
2021/04/15 11:24:26;;;;;;;9.37;8.37;;;;;;;;;;4313857;33;20245;-59
2021/04/15 11:26:54;;;;;;;11.23;8.20;;;;;;;;;;4327827;33;20207;-59
2021/04/15 11:29:48;;;;;;;15.87;10.37;;;;;;;;;;4312040;33;20647;-58
2021/04/15 11:32:39;;;;;;;7.57;6.67;;;;;;;;;;4321112;33;20351;-58
2021/04/15 11:35:05;;;;;;;7.30;5.13;;;;;;;;;;4327050;33;20211;-58
2021/04/15 11:37:31;;;;;;;61.80;31.30;;;;;;;;;;4328063;33;20348;-58
2021/04/15 11:40:32;;;;;;;33.83;17.00;;;;;;;;;;4325963;33;20382;-58
2021/04/15 11:43:18;;;;;;;8.87;7.50;;;;;;;;;;4324376;33;20211;-59
2021/04/15 11:45:44;;;;;;;7.43;6.03;;;;;;;;;;4330072;33;20626;-59
2021/04/15 11:48:10;;;;;;;6.70;5.07;;;;;;;;;;4328813;33;20272;-58
2021/04/15 11:50:36;;;;;;;8.33;6.33;;;;;;;;;;4330338;33;20557;-58
2021/04/15 11:53:26;;;;;;;7.63;6.43;;;;;;;;;;4329224;33;20265;-59
2021/04/15 11:56:11;;;;;;;7.30;5.37;;;;;;;;;;4329265;33;20237;-58
2021/04/15 11:58:36;;;;;;;10.60;8.77;;;;;;;;;;4324664;33;20636;-58
2021/04/15 12:01:02;;;;;;;10.10;7.60;;;;;;;;;;4330511;33;20250;-58
2021/04/15 12:03:28;;;;;;;8.30;5.70;;;;;;;;;;4329728;33;20302;-58
2021/04/15 12:06:00;;;;;;;7.90;5.47;;;;;;;;;;4330386;33;20376;-58
2021/04/15 12:08:26;;;;;;;16.10;11.63;;;;;;;;;;4321623;33;20231;-58
2021/04/15 12:10:57;;;;;;;15.57;10.30;;;;;;;;;;4329333;33;20230;-57
2021/04/15 12:14:03;;;;;;;10.73;6.93;;;;;;;;;;4328142;33;20306;-58
2021/04/15 12:16:40;;;;;;;6.50;5.10;;;;;;;;;;4316884;33;20362;-58
2021/04/15 12:19:51;;;;;;;31.43;15.63;;;;;;;;;;4326056;33;20207;-58
2021/04/15 12:22:19;;;;;;;20.50;12.63;;;;;;;;;;4315757;33;20222;-58
2021/04/15 12:25:05;;;;;;;11.90;7.30;;;;;;;;;;4329407;33;20230;-59
2021/04/15 12:27:33;;;;;;;8.63;6.90;;;;;;;;;;4329150;33;20600;-58
2021/04/15 12:30:23;;;;;;;7.90;5.23;;;;;;;;;;4329457;33;20234;-59
2021/04/15 12:33:11;;;;;;;19.53;13.13;;;;;;;;;;4315396;33;20265;-58
2021/04/15 12:35:53;;;;;;;7.77;5.70;;;;;;;;;;4327383;33;20251;-58
2021/04/15 12:38:24;;;;;;;6.20;5.60;;;;;;;;;;4329305;33;20211;-58
2021/04/15 12:40:57;;;;;;;8.60;7.07;;;;;;;;;;4330255;33;20246;-57
2021/04/15 12:43:30;;;;;;;19.07;11.90;;;;;;;;;;4327920;33;20443;-59
2021/04/15 12:46:02;;;;;;;23.63;16.73;;;;;;;;;;4328795;33;20286;-56
2021/04/15 12:48:33;;;;;;;17.37;11.63;;;;;;;;;;4329068;33;20296;-58
2021/04/15 12:51:00;;;;;;;10.10;7.53;;;;;;;;;;4329789;33;20279;-58
2021/04/15 12:53:29;;;;;;;14.23;8.07;;;;;;;;;;4327786;33;20233;-58
2021/04/15 12:55:55;;;;;;;15.50;8.80;;;;;;;;;;4320086;33;20253;-58
2021/04/15 12:58:22;;;;;;;31.40;15.60;;;;;;;;;;4315843;33;20227;-59
2021/04/15 13:00:53;;;;;;;35.70;20.53;;;;;;;;;;4316308;33;20219;-60
2021/04/15 13:03:24;;;;;;;30.87;19.73;;;;;;;;;;4328487;33;20211;-59
2021/04/15 13:05:49;;;;;;;31.57;20.73;;;;;;;;;;4329403;33;20254;-59
2021/04/15 13:08:33;;;;;;;22.47;14.43;;;;;;;;;;4314932;33;20310;-59
2021/04/15 13:11:06;;;;;;;14.40;9.93;;;;;;;;;;4329474;33;20363;-57
2021/04/15 13:13:37;;;;;;;13.90;10.13;;;;;;;;;;4328009;33;20227;-57
2021/04/15 13:16:06;;;;;;;13.10;8.77;;;;;;;;;;4329365;33;20302;-59
2021/04/15 13:18:40;;;;;;;11.70;9.43;;;;;;;;;;4315830;33;20231;-58
2021/04/15 13:21:10;;;;;;;6.73;4.90;;;;;;;;;;4315902;33;20231;-59
2021/04/15 13:23:39;;;;;;;13.83;8.70;;;;;;;;;;4328078;33;20227;-59
2021/04/15 13:26:05;;;;;;;26.83;15.70;;;;;;;;;;4329170;33;20583;-58
2021/04/15 13:28:39;;;;;;;30.20;18.23;;;;;;;;;;4323346;33;20281;-59
2021/04/15 13:31:05;;;;;;;21.73;15.10;;;;;;;;;;4329623;33;20234;-59
2021/04/15 13:33:31;;;;;;;10.53;7.83;;;;;;;;;;4320374;33;20652;-58
2021/04/15 13:35:59;;;;;;;9.03;4.50;;;;;;;;;;4328278;33;20281;-58
2021/04/15 13:41:00;;;;;;;8.43;6.60;;;;;;;;;;4328655;33;20263;-59
2021/04/15 13:43:40;;;;;;;6.40;3.60;;;;;;;;;;4326859;33;20207;-59
2021/04/15 13:46:21;;;;;;;5.53;4.20;;;;;;;;;;4315287;33;20260;-58
2021/04/15 13:49:11;;;;;;;17.53;12.70;;;;;;;;;;4327138;33;20231;-59
2021/04/15 13:52:36;;;;;;;14.00;10.20;;;;;;;;;;4311002;33;20261;-58
2021/04/15 13:55:29;;;;;;;12.60;8.17;;;;;;;;;;4302376;33;20318;-58
2021/04/15 13:57:55;;;;;;;6.73;5.07;;;;;;;;;;4308429;33;20238;-59
2021/04/15 14:00:42;;;;;;;13.13;7.37;;;;;;;;;;4322319;33;20274;-59
2021/04/15 14:03:37;;;;;;;8.97;6.23;;;;;;;;;;4328102;33;20636;-59
2021/04/15 14:06:14;;;;;;;16.40;10.63;;;;;;;;;;4326759;33;20227;-58
2021/04/15 14:08:47;;;;;;;16.80;10.13;;;;;;;;;;4326590;33;20211;-58
2021/04/15 14:11:29;;;;;;;17.50;12.63;;;;;;;;;;4328678;33;20333;-59
2021/04/15 14:13:57;;;;;;;15.03;9.23;;;;;;;;;;4326357;33;20246;-58
2021/04/15 14:16:24;;;;;;;7.67;6.87;;;;;;;;;;4327927;33;20276;-57
2021/04/15 14:18:58;;;;;;;17.10;11.20;;;;;;;;;;4325231;33;20215;-59
2021/04/15 14:21:28;;;;;;;21.63;13.00;;;;;;;;;;4327135;33;20320;-60
2021/04/15 14:23:57;;;;;;;21.73;14.07;;;;;;;;;;4327623;33;20230;-58
2021/04/15 14:26:25;;;;;;;22.57;14.23;;;;;;;;;;4328057;33;20306;-58
2021/04/15 14:28:53;;;;;;;17.93;10.93;;;;;;;;;;4326580;33;20282;-60
2021/04/15 14:31:26;;;;;;;21.20;14.27;;;;;;;;;;4328175;33;20371;-61
2021/04/15 14:33:53;;;;;;;22.10;15.73;;;;;;;;;;4325653;33;20237;-60
2021/04/15 14:36:29;;;;;;;15.63;11.13;;;;;;;;;;4328105;33;20297;-59
2021/04/15 14:38:58;;;;;;;11.33;8.30;;;;;;;;;;4327065;33;20241;-61
2021/04/15 14:41:29;;;;;;;6.57;5.40;;;;;;;;;;4328160;33;20298;-60
2021/04/15 14:44:05;;;;;;;15.20;10.33;;;;;;;;;;4327296;33;20333;-59
2021/04/15 14:46:36;;;;;;;11.17;7.70;;;;;;;;;;4328199;33;20219;-60
2021/04/15 14:49:12;;;;;;;17.03;13.33;;;;;;;;;;4326951;33;20242;-60
2021/04/15 14:51:39;;;;;;;13.60;10.43;;;;;;;;;;4311159;33;20243;-62
2021/04/15 14:54:19;;;;;;;8.97;7.50;;;;;;;;;;4326990;33;20246;-61
2021/04/15 14:56:47;;;;;;;13.13;8.57;;;;;;;;;;4327317;33;21095;-59
2021/04/15 14:59:26;;;;;;;11.77;8.87;;;;;;;;;;4327101;33;20293;-60
2021/04/15 15:01:53;;;;;;;15.97;10.67;;;;;;;;;;4318877;33;20219;-59
2021/04/15 15:04:28;;;;;;;14.97;10.37;;;;;;;;;;4326279;33;20279;-59
2021/04/15 15:06:55;;;;;;;8.93;7.53;;;;;;;;;;4324921;33;20327;-60
2021/04/15 15:09:27;;;;;;;15.90;11.80;;;;;;;;;;4327292;33;20245;-59
2021/04/15 15:11:56;;;;;;;26.50;18.47;;;;;;;;;;4318939;33;20239;-60
2021/04/15 15:14:26;;;;;;;34.00;22.17;;;;;;;;;;4325194;33;20308;-59
2021/04/15 15:16:53;;;;;;;22.40;12.43;;;;;;;;;;4325236;33;20231;-58
2021/04/15 15:19:23;;;;;;;24.10;15.03;;;;;;;;;;4329272;33;20226;-59
2021/04/15 15:21:55;;;;;;;45.93;29.23;;;;;;;;;;4326608;33;20310;-59
2021/04/15 15:24:20;;;;;;;42.77;25.27;;;;;;;;;;4328355;33;20282;-58
2021/04/15 15:26:55;;;;;;;24.67;16.87;;;;;;;;;;4327799;33;20731;-58